Time;durP1;ratioP1;P1;durP2;ratioP2;P2;SDS_P1;SDS_P2;PMS_P1;PMS_P2;Temp;Humidity;BMP_temperature;BMP_pressure;BME280_temperature;BME280_humidity;BME280_pressure;Samples;Min_cycle;Max_cycle;Signal;HPM_P1;HPM_P2
2021/05/09 00:00:13;;;;;;;4.50;1.63;;;11.60;99.90;;;;;;5014856;28;20514;-60
2021/05/09 00:02:39;;;;;;;3.83;1.63;;;11.60;99.90;;;;;;4995334;28;20054;-58
2021/05/09 00:05:05;;;;;;;2.47;1.70;;;11.60;99.90;;;;;;5006653;28;20050;-60
2021/05/09 00:07:31;;;;;;;2.80;1.70;;;11.50;99.90;;;;;;5007823;28;20058;-61
2021/05/09 00:09:57;;;;;;;2.72;1.70;;;11.50;99.90;;;;;;5007641;28;20030;-60
2021/05/09 00:12:23;;;;;;;4.00;2.08;;;11.50;99.90;;;;;;4984633;28;20041;-59
2021/05/09 00:14:49;;;;;;;3.35;1.70;;;11.50;99.90;;;;;;5008032;28;20030;-61
2021/05/09 00:17:14;;;;;;;5.35;1.48;;;11.50;99.90;;;;;;5008932;28;20022;-59
2021/05/09 00:19:40;;;;;;;3.88;2.15;;;11.40;99.90;;;;;;5007067;28;20388;-61
2021/05/09 00:22:06;;;;;;;5.10;1.83;;;11.40;99.90;;;;;;5009868;28;20083;-61
2021/05/09 00:24:31;;;;;;;4.70;1.80;;;11.40;99.90;;;;;;5007033;28;20065;-61
2021/05/09 00:26:57;;;;;;;3.10;1.75;;;11.30;99.90;;;;;;4995871;28;20032;-61
2021/05/09 00:29:23;;;;;;;2.58;1.60;;;11.30;99.90;;;;;;5005563;28;20041;-59
2021/05/09 00:31:48;;;;;;;4.00;1.80;;;11.30;99.90;;;;;;5009490;28;20033;-62
2021/05/09 00:34:14;;;;;;;3.00;1.60;;;11.20;99.90;;;;;;5006003;28;20030;-61
2021/05/09 00:36:40;;;;;;;3.08;1.50;;;11.20;99.90;;;;;;5007819;28;20377;-60
2021/05/09 00:39:06;;;;;;;7.35;1.48;;;11.10;99.90;;;;;;5008476;28;20149;-62
2021/05/09 00:41:31;;;;;;;5.20;1.88;;;11.10;99.90;;;;;;5012871;28;20045;-61
2021/05/09 00:43:57;;;;;;;4.05;1.65;;;11.10;99.90;;;;;;5013594;28;20022;-61
2021/05/09 00:46:23;;;;;;;3.20;1.98;;;11.10;99.90;;;;;;5013450;28;20056;-61
2021/05/09 00:48:49;;;;;;;3.30;1.60;;;11.10;99.90;;;;;;5007549;28;20045;-60
2021/05/09 00:51:15;;;;;;;4.57;1.70;;;11.20;99.90;;;;;;5009532;28;20029;-61
2021/05/09 00:53:47;;;;;;;3.63;1.67;;;11.10;99.90;;;;;;5009809;28;20084;-61
2021/05/09 00:56:16;;;;;;;3.47;1.63;;;11.10;99.90;;;;;;4995446;28;20033;-61
2021/05/09 00:58:43;;;;;;;3.35;2.08;;;11.10;99.90;;;;;;5009812;28;20424;-60
2021/05/09 01:01:12;;;;;;;8.55;1.77;;;11.10;99.90;;;;;;4990003;28;20029;-62
2021/05/09 01:03:41;;;;;;;5.55;1.90;;;11.10;99.90;;;;;;5003328;28;20045;-60
2021/05/09 01:06:08;;;;;;;2.78;1.50;;;11.10;99.90;;;;;;5009584;28;20026;-62
2021/05/09 01:08:35;;;;;;;3.65;1.67;;;11.20;99.90;;;;;;5008459;28;20030;-60
2021/05/09 01:11:05;;;;;;;3.30;1.42;;;11.20;99.90;;;;;;4993096;28;20053;-61
2021/05/09 01:13:32;;;;;;;4.47;1.73;;;11.20;99.90;;;;;;5007789;28;20400;-60
2021/05/09 01:16:00;;;;;;;6.22;2.05;;;11.10;99.90;;;;;;5008019;28;20026;-60
2021/05/09 01:18:27;;;;;;;3.00;1.63;;;11.10;99.90;;;;;;4996277;28;20542;-60
2021/05/09 01:20:52;;;;;;;3.40;1.40;;;11.10;99.90;;;;;;5003206;28;20080;-60
2021/05/09 01:23:19;;;;;;;3.47;1.80;;;11.00;99.90;;;;;;5009348;28;20135;-62
2021/05/09 01:25:44;;;;;;;4.72;1.60;;;11.00;99.90;;;;;;5006356;28;20045;-60
2021/05/09 01:28:10;;;;;;;3.08;1.48;;;11.00;99.90;;;;;;5009112;28;20491;-61
2021/05/09 01:30:36;;;;;;;2.67;1.73;;;11.00;99.90;;;;;;5006092;28;20088;-62
2021/05/09 01:33:03;;;;;;;4.78;1.73;;;11.10;99.90;;;;;;5007917;28;20026;-60
2021/05/09 01:35:29;;;;;;;4.00;1.58;;;11.00;99.90;;;;;;5006145;28;20410;-60
2021/05/09 01:37:55;;;;;;;2.83;1.77;;;11.00;99.90;;;;;;5009374;28;20030;-59
2021/05/09 01:40:20;;;;;;;4.22;1.67;;;11.00;99.90;;;;;;5002966;28;20026;-61
2021/05/09 01:42:46;;;;;;;3.05;1.92;;;10.90;99.90;;;;;;5001580;28;20036;-60
2021/05/09 01:45:13;;;;;;;3.05;1.67;;;10.90;99.90;;;;;;5004455;28;20122;-61
2021/05/09 01:47:39;;;;;;;8.30;1.65;;;11.00;99.90;;;;;;5008176;28;20034;-59
2021/05/09 01:50:16;;;;;;;4.82;1.80;;;11.00;99.90;;;;;;5010328;28;20026;-60
2021/05/09 01:52:42;;;;;;;2.35;1.60;;;11.00;99.90;;;;;;5004921;28;20057;-61
2021/05/09 01:55:12;;;;;;;2.67;1.60;;;11.00;99.90;;;;;;5009274;28;20026;-61
2021/05/09 01:57:37;;;;;;;4.55;1.60;;;11.00;99.90;;;;;;5005303;28;20025;-60
2021/05/09 02:00:11;;;;;;;4.00;1.70;;;10.90;99.90;;;;;;5003296;28;20029;-61
2021/05/09 02:02:37;;;;;;;2.08;1.65;;;10.90;99.90;;;;;;4976553;28;20073;-59
2021/05/09 02:05:05;;;;;;;4.72;1.95;;;11.00;99.90;;;;;;4987796;28;20099;-61
2021/05/09 02:07:31;;;;;;;2.38;1.60;;;11.00;99.90;;;;;;5000027;28;20034;-60
2021/05/09 02:09:56;;;;;;;4.57;1.70;;;11.00;99.90;;;;;;4995393;28;20073;-59
2021/05/09 02:12:22;;;;;;;2.80;1.52;;;11.00;99.90;;;;;;5003545;28;20077;-60
2021/05/09 02:14:48;;;;;;;4.10;1.50;;;11.00;99.90;;;;;;4998686;28;20101;-60
2021/05/09 02:17:14;;;;;;;2.85;1.80;;;10.90;99.90;;;;;;5008432;28;20484;-62
2021/05/09 02:19:40;;;;;;;6.28;1.75;;;10.90;99.90;;;;;;5001512;28;20027;-61
2021/05/09 02:22:06;;;;;;;7.65;1.98;;;10.90;99.90;;;;;;5005310;28;20034;-59
2021/05/09 02:24:31;;;;;;;3.45;1.92;;;10.90;99.90;;;;;;5000001;28;20027;-59
2021/05/09 02:26:57;;;;;;;4.25;1.60;;;10.80;99.90;;;;;;4988694;28;20030;-61
2021/05/09 02:29:23;;;;;;;5.43;1.60;;;11.00;99.90;;;;;;5009323;28;20518;-60
2021/05/09 02:31:49;;;;;;;1.92;1.58;;;11.00;99.90;;;;;;5005674;28;20113;-59
2021/05/09 02:34:14;;;;;;;2.47;1.63;;;11.10;99.90;;;;;;4986633;28;20136;-59
2021/05/09 02:36:42;;;;;;;2.60;1.38;;;11.10;99.90;;;;;;4987397;28;20034;-59
2021/05/09 02:39:08;;;;;;;3.50;1.73;;;11.10;99.90;;;;;;5014484;28;20379;-60
2021/05/09 02:41:33;;;;;;;2.55;1.95;;;11.20;99.90;;;;;;5006440;28;20026;-61
2021/05/09 02:43:59;;;;;;;1.75;1.40;;;11.20;99.90;;;;;;4990964;28;20034;-60
2021/05/09 02:46:24;;;;;;;2.45;1.60;;;11.10;99.90;;;;;;5008988;28;20541;-61
2021/05/09 02:48:50;;;;;;;2.65;1.73;;;11.10;99.90;;;;;;4987361;28;20649;-60
2021/05/09 02:51:15;;;;;;;3.95;2.05;;;11.10;99.90;;;;;;5008129;28;20026;-62
2021/05/09 02:53:41;;;;;;;4.28;1.80;;;11.00;99.90;;;;;;5002724;28;20029;-62
2021/05/09 02:56:06;;;;;;;2.30;1.70;;;10.90;99.90;;;;;;5000272;28;20534;-60
2021/05/09 02:58:32;;;;;;;3.92;1.80;;;10.90;99.90;;;;;;5008116;28;20373;-61
2021/05/09 03:00:58;;;;;;;2.40;1.60;;;10.80;99.90;;;;;;5003316;28;20648;-61
2021/05/09 03:03:23;;;;;;;3.63;1.60;;;10.80;99.90;;;;;;4988337;28;20037;-62
2021/05/09 03:05:49;;;;;;;3.05;1.95;;;10.80;99.90;;;;;;5008318;28;20042;-61
2021/05/09 03:08:14;;;;;;;2.30;1.52;;;10.80;99.90;;;;;;4999507;28;20030;-59
2021/05/09 03:10:40;;;;;;;3.83;1.50;;;10.80;99.90;;;;;;4999670;28;20034;-59
2021/05/09 03:13:06;;;;;;;3.72;1.85;;;10.80;99.90;;;;;;5009411;28;20387;-61
2021/05/09 03:15:32;;;;;;;2.88;1.77;;;10.80;99.90;;;;;;5008897;28;20052;-60
2021/05/09 03:17:57;;;;;;;3.70;1.70;;;10.80;99.90;;;;;;4994063;28;20029;-62
2021/05/09 03:20:23;;;;;;;4.53;1.80;;;10.80;99.90;;;;;;5005019;28;20470;-61
2021/05/09 03:22:49;;;;;;;2.65;1.85;;;10.70;99.90;;;;;;5008556;28;20798;-62
2021/05/09 03:25:15;;;;;;;2.33;1.50;;;10.60;99.90;;;;;;5007699;28;20087;-62
2021/05/09 03:27:40;;;;;;;1.63;1.40;;;10.60;99.90;;;;;;5008186;28;20085;-62
2021/05/09 03:30:06;;;;;;;5.65;1.80;;;10.70;99.90;;;;;;5003279;28;20455;-62
2021/05/09 03:32:32;;;;;;;2.88;1.58;;;10.70;99.90;;;;;;5010762;28;20029;-65
2021/05/09 03:34:57;;;;;;;3.63;1.80;;;10.80;99.90;;;;;;5011021;28;20024;-61
2021/05/09 03:37:23;;;;;;;4.28;1.67;;;10.80;99.90;;;;;;5011552;28;20045;-62
2021/05/09 03:39:49;;;;;;;1.85;1.33;;;10.80;99.90;;;;;;5005106;28;20549;-61
2021/05/09 03:42:14;;;;;;;3.67;1.85;;;10.80;99.90;;;;;;5010991;28;20033;-61
2021/05/09 03:44:40;;;;;;;2.38;1.55;;;10.90;99.90;;;;;;5006856;28;20038;-60
2021/05/09 03:47:06;;;;;;;3.05;1.38;;;10.90;99.90;;;;;;5001337;28;20504;-62
2021/05/09 03:49:31;;;;;;;3.72;1.60;;;10.90;99.90;;;;;;5011240;28;20036;-61
2021/05/09 03:51:57;;;;;;;4.07;2.05;;;10.90;99.90;;;;;;5007439;28;20038;-61
2021/05/09 03:54:23;;;;;;;3.40;1.70;;;10.80;99.90;;;;;;5011904;28;20038;-62
2021/05/09 03:56:48;;;;;;;3.58;1.35;;;10.80;99.90;;;;;;5011994;28;20080;-62
2021/05/09 03:59:14;;;;;;;5.95;1.70;;;10.80;99.90;;;;;;5007716;28;20023;-61
2021/05/09 04:01:42;;;;;;;3.67;1.77;;;10.80;99.90;;;;;;5009299;28;20030;-61
2021/05/09 04:04:07;;;;;;;3.88;1.67;;;10.80;99.90;;;;;;4986098;28;20739;-62
2021/05/09 04:06:33;;;;;;;3.67;1.80;;;10.90;99.90;;;;;;5008905;28;20046;-61
2021/05/09 04:08:58;;;;;;;4.18;1.90;;;10.90;99.90;;;;;;5004609;28;20034;-59
2021/05/09 04:11:24;;;;;;;3.60;1.90;;;10.90;99.90;;;;;;5004143;28;20031;-60
2021/05/09 04:13:50;;;;;;;6.13;1.52;;;10.80;99.90;;;;;;5010049;28;20026;-61
2021/05/09 04:16:17;;;;;;;2.83;1.55;;;10.80;99.90;;;;;;5000663;28;20100;-62
2021/05/09 04:18:42;;;;;;;6.20;1.90;;;10.70;99.90;;;;;;5011035;28;20033;-63
2021/05/09 04:21:08;;;;;;;8.70;4.13;;;10.80;99.90;;;;;;5007335;28;20122;-60
2021/05/09 04:23:34;;;;;;;7.75;1.58;;;10.80;99.90;;;;;;5010397;28;20033;-60
2021/05/09 04:26:00;;;;;;;2.47;1.40;;;10.80;99.90;;;;;;5004907;28;20030;-61
2021/05/09 04:28:26;;;;;;;6.35;1.85;;;10.90;99.90;;;;;;5009091;28;20033;-61
2021/05/09 04:30:52;;;;;;;2.78;1.75;;;11.00;99.90;;;;;;5009550;28;20546;-60
2021/05/09 04:33:24;;;;;;;1.70;1.38;;;11.20;99.90;;;;;;5023188;28;20482;-61
2021/05/09 04:35:50;;;;;;;3.00;1.90;;;11.20;99.90;;;;;;5008371;28;20052;-61
2021/05/09 04:38:15;;;;;;;2.50;1.40;;;11.30;99.90;;;;;;5011433;28;20049;-60
2021/05/09 04:40:41;;;;;;;4.63;1.38;;;11.40;99.90;;;;;;5009981;28;20049;-61
2021/05/09 04:43:12;;;;;;;4.72;1.80;;;11.50;99.90;;;;;;5002628;28;20120;-61
2021/05/09 04:45:38;;;;;;;2.92;1.50;;;11.60;99.90;;;;;;5010117;28;20449;-59
2021/05/09 04:48:04;;;;;;;2.40;1.60;;;11.80;99.90;;;;;;5002672;28;20046;-58
2021/05/09 04:50:31;;;;;;;2.63;1.50;;;12.10;99.90;;;;;;5009367;28;20094;-62
2021/05/09 04:52:57;;;;;;;3.30;1.33;;;12.30;99.90;;;;;;5010955;28;20431;-62
2021/05/09 04:55:23;;;;;;;2.33;1.67;;;12.60;99.90;;;;;;5005752;28;20097;-62
2021/05/09 04:57:48;;;;;;;2.38;1.42;;;13.00;99.90;;;;;;5006764;28;20541;-61
2021/05/09 05:00:16;;;;;;;1.45;1.17;;;13.30;99.90;;;;;;5006402;28;21001;-62
2021/05/09 05:02:45;;;;;;;2.88;1.77;;;14.30;99.90;;;;;;4970415;28;20049;-61
2021/05/09 05:05:12;;;;;;;1.52;1.40;;;15.90;99.90;;;;;;4998777;28;20086;-60
2021/05/09 05:07:38;;;;;;;2.47;1.67;;;17.50;98.60;;;;;;5007594;28;20034;-60
2021/05/09 05:10:04;;;;;;;2.67;1.50;;;19.20;95.50;;;;;;5009467;28;20030;-61
2021/05/09 05:12:30;;;;;;;2.95;1.25;;;20.70;91.70;;;;;;5013402;28;20054;-63
2021/05/09 05:14:56;;;;;;;2.10;1.25;;;21.80;85.10;;;;;;5009815;28;20057;-62
2021/05/09 05:17:21;;;;;;;2.25;1.20;;;22.10;80.60;;;;;;5003404;28;20018;-61
2021/05/09 05:19:47;;;;;;;2.78;1.40;;;23.10;75.20;;;;;;5002659;28;20041;-62
2021/05/09 05:22:13;;;;;;;3.35;1.48;;;23.60;68.70;;;;;;5005554;28;20509;-61
2021/05/09 05:24:39;;;;;;;2.78;1.20;;;24.30;65.10;;;;;;5000811;28;20065;-62
2021/05/09 05:27:04;;;;;;;3.90;1.10;;;24.40;62.30;;;;;;5008431;28;20026;-60
2021/05/09 05:29:30;;;;;;;4.63;1.58;;;24.20;60.40;;;;;;5003738;28;20034;-61
2021/05/09 05:31:56;;;;;;;2.08;1.15;;;24.50;60.60;;;;;;5003142;28;20027;-62
2021/05/09 05:34:22;;;;;;;4.90;1.30;;;23.70;60.90;;;;;;5004694;28;20490;-61
2021/05/09 05:36:47;;;;;;;7.68;1.67;;;24.60;59.90;;;;;;5005474;28;20419;-62
2021/05/09 05:39:13;;;;;;;3.50;1.02;;;25.50;58.10;;;;;;4991868;28;20052;-61
2021/05/09 05:41:40;;;;;;;4.30;1.30;;;26.10;54.60;;;;;;5009682;28;20045;-61
2021/05/09 05:44:06;;;;;;;4.47;1.20;;;25.50;54.90;;;;;;5004244;28;20022;-60
2021/05/09 05:46:32;;;;;;;4.20;1.35;;;25.20;53.70;;;;;;5009243;28;20030;-61
2021/05/09 05:48:58;;;;;;;2.08;1.30;;;25.40;54.40;;;;;;5007077;28;20155;-61
2021/05/09 05:51:23;;;;;;;1.48;1.35;;;25.80;54.20;;;;;;5006372;28;20042;-61
2021/05/09 05:53:53;;;;;;;1.92;0.90;;;25.10;53.80;;;;;;5007675;28;20034;-59
2021/05/09 05:56:18;;;;;;;4.05;1.13;;;25.30;53.30;;;;;;5004765;28;20022;-62
2021/05/09 05:58:44;;;;;;;3.85;1.20;;;25.20;54.00;;;;;;5009409;28;20044;-61
2021/05/09 06:01:10;;;;;;;3.00;1.33;;;25.70;53.20;;;;;;5008322;28;20014;-61
2021/05/09 06:03:35;;;;;;;2.40;1.10;;;25.50;52.50;;;;;;4981330;28;20069;-61
2021/05/09 06:06:01;;;;;;;1.83;1.17;;;25.80;54.30;;;;;;5007185;28;20033;-61
2021/05/09 06:08:26;;;;;;;5.32;1.17;;;25.70;53.10;;;;;;5009338;28;20477;-61
2021/05/09 06:10:52;;;;;;;2.08;1.25;;;25.50;53.10;;;;;;5004167;28;20080;-61
2021/05/09 06:13:23;;;;;;;3.13;1.42;;;25.60;52.40;;;;;;5009318;28;20405;-61
2021/05/09 06:15:49;;;;;;;2.72;1.30;;;25.60;51.90;;;;;;5002550;28;20029;-60
2021/05/09 06:18:15;;;;;;;1.67;1.30;;;25.30;53.30;;;;;;4987429;28;20022;-61
2021/05/09 06:20:41;;;;;;;3.20;1.10;;;25.50;53.00;;;;;;5002408;28;20037;-62
2021/05/09 06:23:07;;;;;;;4.93;1.48;;;26.00;53.40;;;;;;5004981;28;20038;-61
2021/05/09 06:25:33;;;;;;;1.83;1.30;;;25.80;51.70;;;;;;5000940;28;20574;-62
2021/05/09 06:27:59;;;;;;;1.98;1.27;;;26.70;51.50;;;;;;5002550;28;20462;-61
2021/05/09 06:30:25;;;;;;;1.55;1.05;;;27.30;50.10;;;;;;5005476;28;20034;-61
2021/05/09 06:32:51;;;;;;;1.13;1.00;;;27.30;49.00;;;;;;5009264;28;20029;-61
2021/05/09 06:35:17;;;;;;;3.00;1.10;;;27.60;49.30;;;;;;5008745;28;20026;-61
2021/05/09 06:37:43;;;;;;;3.20;1.20;;;28.30;48.10;;;;;;4991787;28;20026;-61
2021/05/09 06:40:10;;;;;;;1.30;0.95;;;27.50;48.10;;;;;;4998015;28;20022;-62
2021/05/09 06:42:35;;;;;;;2.90;1.50;;;27.70;49.10;;;;;;5008808;28;20654;-61
2021/05/09 06:45:07;;;;;;;3.30;1.10;;;27.70;48.60;;;;;;5008983;28;20029;-63
2021/05/09 06:47:32;;;;;;;4.88;1.35;;;27.30;50.20;;;;;;5009158;28;20083;-60
2021/05/09 06:49:58;;;;;;;2.95;1.25;;;27.00;50.80;;;;;;5011414;28;20495;-62
2021/05/09 06:52:24;;;;;;;3.25;1.42;;;27.10;50.90;;;;;;5009051;28;20703;-63
2021/05/09 06:54:53;;;;;;;2.17;1.17;;;28.40;49.30;;;;;;5012719;28;20033;-63
2021/05/09 06:57:18;;;;;;;1.90;1.13;;;28.90;47.40;;;;;;5012586;28;20033;-60
2021/05/09 06:59:44;;;;;;;2.20;1.40;;;29.60;47.00;;;;;;5004893;28;20076;-62
2021/05/09 07:02:10;;;;;;;2.17;1.38;;;29.60;46.80;;;;;;5018478;28;20104;-61
2021/05/09 07:04:36;;;;;;;4.47;2.13;;;30.10;46.30;;;;;;4991928;28;20771;-62
2021/05/09 07:07:01;;;;;;;6.07;1.58;;;29.60;46.30;;;;;;5010078;28;20053;-61
2021/05/09 07:09:27;;;;;;;4.88;1.25;;;29.90;45.70;;;;;;5006815;28;20026;-62
2021/05/09 07:11:53;;;;;;;2.97;1.40;;;29.30;45.20;;;;;;5000049;28;20034;-62
2021/05/09 07:14:19;;;;;;;3.17;1.50;;;29.90;47.00;;;;;;5007812;28;20062;-62
2021/05/09 07:16:44;;;;;;;2.08;1.38;;;30.40;45.30;;;;;;5005917;28;20033;-62
2021/05/09 07:19:10;;;;;;;2.85;1.38;;;30.40;45.10;;;;;;5008857;28;20039;-62
2021/05/09 07:21:41;;;;;;;4.60;1.50;;;30.70;45.40;;;;;;5008482;28;20042;-61
2021/05/09 07:24:07;;;;;;;3.42;1.33;;;31.00;44.00;;;;;;5007548;28;20026;-61
2021/05/09 07:26:33;;;;;;;1.48;1.25;;;30.80;44.60;;;;;;5001757;28;20048;-61
2021/05/09 07:28:59;;;;;;;2.15;1.63;;;31.10;44.10;;;;;;5007147;28;20026;-61
2021/05/09 07:31:25;;;;;;;3.05;1.70;;;31.00;44.40;;;;;;5012124;28;20048;-61
2021/05/09 07:33:50;;;;;;;3.72;1.30;;;31.10;42.80;;;;;;5010525;28;20048;-62
2021/05/09 07:36:16;;;;;;;3.47;1.75;;;30.40;43.90;;;;;;5004178;28;20555;-62
2021/05/09 07:38:42;;;;;;;5.32;1.20;;;29.60;45.30;;;;;;5011398;28;20053;-61
2021/05/09 07:41:08;;;;;;;4.13;1.60;;;29.60;44.40;;;;;;4986629;28;20368;-62
2021/05/09 07:43:37;;;;;;;2.38;1.48;;;29.60;46.20;;;;;;5011491;28;20116;-61
2021/05/09 07:46:03;;;;;;;1.85;1.40;;;29.10;45.60;;;;;;5011702;28;20280;-62
2021/05/09 07:48:28;;;;;;;4.22;1.95;;;28.80;46.20;;;;;;5011274;28;20034;-62
2021/05/09 07:50:54;;;;;;;3.90;1.65;;;29.40;45.50;;;;;;5011394;28;20041;-63
2021/05/09 07:53:19;;;;;;;2.00;1.77;;;29.70;45.20;;;;;;5010528;28;20038;-62
2021/05/09 07:55:45;;;;;;;3.05;1.50;;;30.00;45.30;;;;;;5007998;28;20028;-61
2021/05/09 07:58:15;;;;;;;2.67;1.60;;;30.00;44.60;;;;;;5010871;28;20026;-61
2021/05/09 08:00:41;;;;;;;4.93;1.33;;;30.10;44.80;;;;;;5005797;28;20053;-61
2021/05/09 08:03:06;;;;;;;2.28;1.27;;;30.60;44.90;;;;;;5013360;28;20068;-60
2021/05/09 08:05:32;;;;;;;2.20;1.30;;;31.40;44.60;;;;;;4998739;28;20046;-61
2021/05/09 08:07:57;;;;;;;2.92;1.35;;;31.60;42.50;;;;;;5021624;28;20029;-62
2021/05/09 08:10:25;;;;;;;3.10;1.63;;;31.40;42.40;;;;;;5010966;28;20077;-63
2021/05/09 08:12:51;;;;;;;2.50;1.15;;;31.00;42.90;;;;;;5007653;28;20038;-60
2021/05/09 08:15:19;;;;;;;3.20;1.30;;;30.10;44.20;;;;;;4989424;28;20023;-62
2021/05/09 08:17:46;;;;;;;5.03;1.77;;;30.30;46.00;;;;;;5007662;28;20036;-61
2021/05/09 08:20:12;;;;;;;3.85;1.92;;;30.40;44.70;;;;;;5003770;28;20061;-62
2021/05/09 08:22:38;;;;;;;3.90;1.15;;;30.70;45.90;;;;;;5010680;28;20025;-61
2021/05/09 08:25:07;;;;;;;4.32;1.48;;;30.90;44.60;;;;;;5008589;28;20034;-62
2021/05/09 08:27:34;;;;;;;4.22;1.85;;;31.00;44.20;;;;;;5011391;28;20399;-62
2021/05/09 08:30:00;;;;;;;3.85;1.60;;;31.30;44.20;;;;;;5000038;28;20034;-63
2021/05/09 08:32:27;;;;;;;3.10;1.70;;;31.70;45.20;;;;;;5011237;28;20487;-63
2021/05/09 08:34:53;;;;;;;4.00;1.60;;;32.70;42.70;;;;;;5010777;28;20400;-62
2021/05/09 08:37:19;;;;;;;2.35;1.60;;;32.60;41.90;;;;;;5010994;28;20065;-62
2021/05/09 08:39:44;;;;;;;3.13;1.52;;;32.50;43.20;;;;;;5008700;28;20053;-61
2021/05/09 08:42:15;;;;;;;5.00;1.92;;;32.00;42.40;;;;;;5008642;28;20040;-61
2021/05/09 08:44:44;;;;;;;3.05;1.63;;;31.40;42.70;;;;;;5007039;28;20173;-61
2021/05/09 08:47:10;;;;;;;4.47;1.20;;;30.90;44.50;;;;;;5009514;28;20041;-61
2021/05/09 08:49:40;;;;;;;4.45;1.70;;;31.00;43.90;;;;;;5010751;28;20037;-61
2021/05/09 08:52:08;;;;;;;4.82;1.65;;;29.70;45.20;;;;;;5012167;28;20030;-60
2021/05/09 08:54:33;;;;;;;2.80;1.42;;;28.20;47.60;;;;;;5018188;28;20105;-60
2021/05/09 08:57:02;;;;;;;2.45;1.30;;;27.60;48.70;;;;;;5013398;28;20112;-62
2021/05/09 08:59:27;;;;;;;4.10;1.80;;;27.90;49.10;;;;;;5008280;28;20048;-63
2021/05/09 09:01:53;;;;;;;3.55;1.60;;;28.50;48.10;;;;;;5012381;28;20113;-62
2021/05/09 09:04:19;;;;;;;4.57;2.03;;;28.80;47.90;;;;;;5000382;28;20415;-63
2021/05/09 09:06:46;;;;;;;2.95;1.50;;;29.10;47.40;;;;;;5015690;28;20045;-60
2021/05/09 09:09:41;;;;;;;8.77;1.50;;;28.80;47.80;;;;;;5005658;28;20488;-62
2021/05/09 09:12:08;;;;;;;4.95;1.40;;;29.40;47.20;;;;;;5007812;28;20470;-62
2021/05/09 09:14:33;;;;;;;3.10;1.42;;;29.30;45.40;;;;;;5009524;28;20519;-60
2021/05/09 09:17:15;;;;;;;2.50;1.25;;;29.40;47.00;;;;;;5006216;28;20037;-63
2021/05/09 09:20:00;;;;;;;3.55;2.03;;;29.80;47.30;;;;;;5005523;28;20025;-61
2021/05/09 09:22:26;;;;;;;4.43;1.50;;;29.50;47.20;;;;;;5006165;28;20045;-62
2021/05/09 09:25:05;;;;;;;9.10;1.40;;;29.80;46.90;;;;;;5008718;28;20171;-62
2021/05/09 09:27:30;;;;;;;3.60;1.50;;;30.00;46.30;;;;;;5009263;28;20030;-61
2021/05/09 09:30:04;;;;;;;4.07;1.48;;;29.70;46.80;;;;;;5008766;28;20454;-60
2021/05/09 09:32:30;;;;;;;5.47;1.85;;;29.80;47.30;;;;;;5006958;28;20042;-62
2021/05/09 09:34:55;;;;;;;3.92;1.42;;;30.00;46.60;;;;;;5006615;28;20506;-62
2021/05/09 09:37:30;;;;;;;3.17;1.33;;;29.90;46.80;;;;;;5013125;28;20029;-61
2021/05/09 09:40:00;;;;;;;3.47;1.45;;;30.10;47.40;;;;;;5009436;28;20112;-62
2021/05/09 09:42:44;;;;;;;7.47;1.60;;;29.50;47.20;;;;;;4993824;28;20040;-62
2021/05/09 09:45:24;;;;;;;3.00;1.42;;;30.20;47.70;;;;;;4984959;28;20037;-62
2021/05/09 09:47:51;;;;;;;4.35;1.33;;;30.20;46.30;;;;;;5012339;28;20038;-61
2021/05/09 09:50:36;;;;;;;8.27;1.52;;;29.80;46.90;;;;;;4993891;28;20537;-62
2021/05/09 09:53:30;;;;;;;2.92;1.38;;;30.00;46.90;;;;;;5009760;28;20080;-62
2021/05/09 09:56:05;;;;;;;5.07;1.58;;;29.70;47.10;;;;;;5002176;28;20033;-62
2021/05/09 09:58:54;;;;;;;4.38;1.40;;;29.70;46.90;;;;;;4995963;28;20395;-61
2021/05/09 10:01:24;;;;;;;3.20;1.35;;;29.20;47.40;;;;;;4996568;28;20026;-62
2021/05/09 10:03:53;;;;;;;5.38;1.60;;;28.40;49.20;;;;;;4979431;28;20053;-62
2021/05/09 10:06:20;;;;;;;5.85;1.50;;;28.70;50.00;;;;;;4995297;28;20054;-62
2021/05/09 10:08:46;;;;;;;2.83;1.48;;;28.70;48.70;;;;;;4990870;28;20776;-61
2021/05/09 10:11:13;;;;;;;4.57;1.70;;;28.70;49.60;;;;;;4987312;28;20543;-62
2021/05/09 10:13:39;;;;;;;3.67;2.00;;;28.50;50.60;;;;;;4992097;28;20118;-63
2021/05/09 10:16:06;;;;;;;5.18;2.28;;;28.10;49.20;;;;;;4988143;28;20051;-62
2021/05/09 10:18:33;;;;;;;2.42;1.83;;;28.20;50.70;;;;;;4993920;28;20088;-61
2021/05/09 10:21:00;;;;;;;4.18;2.28;;;28.20;50.00;;;;;;4991908;28;20088;-61
2021/05/09 10:23:26;;;;;;;3.30;1.92;;;28.10;50.30;;;;;;4995550;28;20022;-60
2021/05/09 10:25:57;;;;;;;4.55;2.05;;;27.70;50.70;;;;;;4996574;28;20032;-61
2021/05/09 10:28:26;;;;;;;4.82;2.00;;;27.80;51.70;;;;;;4998624;28;20038;-59
2021/05/09 10:30:53;;;;;;;2.58;1.58;;;27.90;50.60;;;;;;4999114;28;20042;-62
2021/05/09 10:33:40;;;;;;;3.13;1.58;;;27.90;51.10;;;;;;4997435;28;20034;-61
2021/05/09 10:36:31;;;;;;;3.72;1.50;;;27.90;49.80;;;;;;4991909;28;20026;-62
2021/05/09 10:39:06;;;;;;;4.15;1.67;;;27.80;50.80;;;;;;4995922;28;20033;-62
2021/05/09 10:41:32;;;;;;;3.75;1.70;;;27.90;50.50;;;;;;5001497;28;20025;-61
2021/05/09 10:43:58;;;;;;;10.40;2.25;;;27.90;50.80;;;;;;5003398;28;20054;-62
2021/05/09 10:46:24;;;;;;;2.60;1.35;;;28.00;50.90;;;;;;5010299;28;20055;-62
2021/05/09 10:49:10;;;;;;;2.97;1.40;;;28.10;50.30;;;;;;5013604;28;20033;-61
2021/05/09 10:51:39;;;;;;;3.08;1.58;;;28.00;51.20;;;;;;5005349;28;20030;-62
2021/05/09 10:54:22;;;;;;;6.20;1.50;;;27.90;51.30;;;;;;5013394;28;20038;-61
2021/05/09 10:56:48;;;;;;;;;;;28.00;51.20;;;;;;5015936;28;20025;-62
2021/05/09 10:59:14;;;;;;;2.40;1.35;;;28.20;49.90;;;;;;5006977;28;19941;-61
2021/05/09 11:01:40;;;;;;;4.78;1.48;;;28.40;50.10;;;;;;5000956;28;20026;-62
2021/05/09 11:04:10;;;;;;;7.35;1.40;;;28.10;50.00;;;;;;5016627;28;20038;-62
2021/05/09 11:06:48;;;;;;;5.80;1.70;;;28.20;50.60;;;;;;4997954;28;20042;-61
2021/05/09 11:09:14;;;;;;;3.40;1.40;;;28.50;51.30;;;;;;5005792;28;20723;-62
2021/05/09 11:11:39;;;;;;;4.13;1.25;;;28.60;49.70;;;;;;4993332;28;20149;-60
2021/05/09 11:14:07;;;;;;;2.50;1.27;;;28.90;49.70;;;;;;4997668;28;20136;-61
2021/05/09 11:16:33;;;;;;;3.38;1.63;;;28.90;49.10;;;;;;4992436;28;20113;-61
2021/05/09 11:19:13;;;;;;;1.98;1.45;;;28.80;48.70;;;;;;5011738;28;20105;-60
2021/05/09 11:21:49;;;;;;;6.15;1.50;;;28.70;49.10;;;;;;5005619;28;20038;-60
2021/05/09 11:24:23;;;;;;;3.13;1.40;;;28.80;50.10;;;;;;5000093;28;20066;-60
2021/05/09 11:26:50;;;;;;;4.03;1.40;;;28.80;50.10;;;;;;5007498;28;20395;-61
2021/05/09 11:29:18;;;;;;;3.83;1.45;;;28.50;49.90;;;;;;5000612;28;20551;-62
2021/05/09 11:31:49;;;;;;;2.83;1.10;;;28.40;50.50;;;;;;5006444;28;20053;-59
2021/05/09 11:34:17;;;;;;;2.35;1.77;;;28.50;49.90;;;;;;5006013;28;20030;-61
2021/05/09 11:36:48;;;;;;;3.83;1.40;;;28.50;50.60;;;;;;5009579;28;20471;-60
2021/05/09 11:39:28;;;;;;;4.40;1.60;;;28.50;51.30;;;;;;5009365;28;20021;-61
2021/05/09 11:41:54;;;;;;;2.58;1.38;;;28.70;50.60;;;;;;5010246;28;20115;-61
2021/05/09 11:44:21;;;;;;;1.77;1.35;;;28.90;51.00;;;;;;5011225;28;20041;-62
2021/05/09 11:46:47;;;;;;;2.00;1.48;;;29.00;51.30;;;;;;5011782;28;20030;-60
2021/05/09 11:49:29;;;;;;;3.20;1.30;;;29.20;51.50;;;;;;5010859;28;20032;-61
2021/05/09 11:52:08;;;;;;;4.70;1.50;;;29.40;49.70;;;;;;5009777;28;20033;-60
2021/05/09 11:54:42;;;;;;;4.95;1.33;;;29.60;49.50;;;;;;5005989;28;20056;-61
2021/05/09 11:57:09;;;;;;;4.38;1.42;;;29.50;50.00;;;;;;5012752;28;20033;-61
2021/05/09 11:59:39;;;;;;;5.07;1.50;;;29.20;50.90;;;;;;5019308;28;20081;-60
2021/05/09 12:02:21;;;;;;;1.95;1.40;;;29.20;49.50;;;;;;5015050;28;20037;-61
2021/05/09 12:04:58;;;;;;;7.97;2.58;;;29.10;49.90;;;;;;4974523;28;20737;-61
2021/05/09 12:07:33;;;;;;;1.65;1.20;;;28.90;49.80;;;;;;4993138;28;20026;-62
2021/05/09 12:10:00;;;;;;;2.85;1.50;;;28.70;50.10;;;;;;5006565;28;20076;-60
2021/05/09 12:12:30;;;;;;;2.80;1.20;;;28.70;50.30;;;;;;4993413;28;20029;-61
2021/05/09 12:15:01;;;;;;;4.22;1.10;;;28.50;50.00;;;;;;4995825;28;20026;-62
2021/05/09 12:17:28;;;;;;;7.15;1.70;;;28.40;50.10;;;;;;4995211;28;20034;-61
2021/05/09 12:19:55;;;;;;;5.22;1.40;;;28.30;49.90;;;;;;4998024;28;20404;-62
2021/05/09 12:22:22;;;;;;;2.63;1.48;;;28.10;50.20;;;;;;4992733;28;20026;-62
2021/05/09 12:24:57;;;;;;;4.55;1.20;;;28.10;50.80;;;;;;4995477;28;20022;-61
2021/05/09 12:27:26;;;;;;;4.70;1.75;;;27.90;49.80;;;;;;4993080;28;20057;-62
2021/05/09 12:29:55;;;;;;;6.75;1.40;;;27.70;51.10;;;;;;4996149;28;20041;-61
2021/05/09 12:32:30;;;;;;;4.30;1.48;;;27.80;50.40;;;;;;5006583;28;20029;-63
2021/05/09 12:35:08;;;;;;;2.47;1.10;;;27.70;51.10;;;;;;5008688;28;20113;-61
2021/05/09 12:37:39;;;;;;;7.03;1.50;;;27.70;50.50;;;;;;5010113;28;20119;-63
2021/05/09 12:40:21;;;;;;;6.70;1.80;;;27.70;50.40;;;;;;5010839;28;20455;-61
2021/05/09 12:42:52;;;;;;;9.52;1.50;;;27.70;51.40;;;;;;5012052;28;20091;-60
2021/05/09 12:45:37;;;;;;;4.60;1.30;;;27.70;49.90;;;;;;5009095;28;20022;-62
2021/05/09 12:48:10;;;;;;;2.75;1.45;;;27.50;50.80;;;;;;5010309;28;20033;-60
2021/05/09 12:50:54;;;;;;;4.53;2.25;;;27.40;50.40;;;;;;5010013;28;20168;-62